createdAt,value
2023-03-16T00:02:07.721Z,101547.19
2023-03-16T00:07:13.360Z,101537.59
2023-03-16T00:12:20.236Z,101543.88
2023-03-16T00:17:27.268Z,101531.84
2023-03-16T00:22:32.897Z,101533.63
2023-03-16T00:27:38.604Z,101524.44
2023-03-16T00:32:44.149Z,101514.28
2023-03-16T00:37:49.802Z,101527.03
2023-03-16T00:42:56.400Z,101527.59
2023-03-16T00:48:02.581Z,101524.16
2023-03-16T00:53:08.020Z,101531.81
2023-03-16T00:58:15.554Z,101528.78
2023-03-16T01:03:21.106Z,101523.28
2023-03-16T01:08:28.764Z,101526.06
2023-03-16T01:13:34.857Z,101539.38
2023-03-16T01:18:40.684Z,101539.06
2023-03-16T01:23:46.291Z,101534.78
2023-03-16T01:28:52.219Z,101527.25
2023-03-16T01:33:57.645Z,101519.50
2023-03-16T01:39:08.566Z,101514.94
2023-03-16T01:44:23.167Z,101513.03
2023-03-16T01:49:36.985Z,101523.56
2023-03-16T01:54:50.885Z,101525.78
2023-03-16T02:00:35.203Z,101527.19
2023-03-16T02:06:06.737Z,101512.16
2023-03-16T02:11:13.647Z,101519.75
2023-03-16T02:16:28.790Z,101517.84
2023-03-16T02:21:43.574Z,101523.34
2023-03-16T02:27:05.270Z,101518.38
2023-03-16T02:32:17.618Z,101516.44
2023-03-16T02:37:23.120Z,101499.97
2023-03-16T02:42:30.722Z,101509.63
2023-03-16T02:47:45.553Z,101517.25
2023-03-16T02:52:51.724Z,101505.47
2023-03-16T02:57:57.515Z,101496.84
2023-03-16T03:03:03.194Z,101488.50
2023-03-16T03:08:10.648Z,101486.06
2023-03-16T03:13:16.912Z,101469.56
2023-03-16T03:18:22.418Z,101470.09
2023-03-16T03:23:28.702Z,101484.09
2023-03-16T03:28:34.859Z,101484.94
2023-03-16T03:33:41.157Z,101483.28
2023-03-16T03:38:46.823Z,101480.84
2023-03-16T03:43:52.941Z,101479.59
2023-03-16T03:49:04.124Z,101462.06
2023-03-16T03:54:14.921Z,101469.03
2023-03-16T03:59:44.457Z,101489.75
2023-03-16T04:05:09.550Z,101467.09
2023-03-16T04:10:15.522Z,101465.22
2023-03-16T04:15:22.840Z,101460.44
2023-03-16T04:20:47.932Z,101457.25
2023-03-16T04:25:58.892Z,101453.88
2023-03-16T04:31:07.654Z,101453.28
2023-03-16T04:36:19.705Z,101432.34
2023-03-16T04:41:27.027Z,101439.34
2023-03-16T04:46:47.524Z,101438.38
2023-03-16T04:51:52.953Z,101435.56
2023-03-16T04:56:59.364Z,101436.69
2023-03-16T05:02:11.169Z,101435.84
2023-03-16T05:07:16.165Z,101421.03
2023-03-16T05:12:25.792Z,101432.13
2023-03-16T05:17:36.318Z,101431.84
2023-03-16T05:22:46.849Z,101423.00
2023-03-16T05:27:56.293Z,101423.97
2023-03-16T05:33:22.181Z,101432.81
2023-03-16T05:38:32.509Z,101434.97
2023-03-16T05:43:37.072Z,101434.16
2023-03-16T05:48:43.007Z,101417.94
2023-03-16T05:53:51.964Z,101415.78
2023-03-16T05:59:05.908Z,101409.91
2023-03-16T06:04:12.040Z,101413.81
2023-03-16T06:09:18.746Z,101414.63
2023-03-16T06:14:24.566Z,101405.22
2023-03-16T06:19:32.270Z,101402.69
2023-03-16T06:24:38.914Z,101397.75
2023-03-16T06:29:43.855Z,101393.41
2023-03-16T06:34:48.620Z,101390.94
2023-03-16T06:39:53.193Z,101380.78
2023-03-16T06:45:01.584Z,101377.03
2023-03-16T06:50:07.984Z,101356.25
2023-03-16T06:55:13.502Z,101367.25
2023-03-16T07:00:23.376Z,101356.63
2023-03-16T07:05:28.099Z,101345.16
2023-03-16T07:10:32.594Z,101347.50
2023-03-16T07:15:37.068Z,101349.13
2023-03-16T07:20:42.965Z,101338.69
2023-03-16T07:25:47.922Z,101335.09
2023-03-16T07:31:03.486Z,101329.31
2023-03-16T07:36:14.706Z,101307.72
2023-03-16T07:41:25.954Z,101320.66
2023-03-16T07:46:30.221Z,101313.59
2023-03-16T07:51:34.425Z,101314.28
2023-03-16T07:56:48.297Z,101305.41
2023-03-16T08:02:04.840Z,101306.66
2023-03-16T08:07:11.029Z,101294.84
2023-03-16T08:12:38.507Z,101294.19
2023-03-16T08:17:43.485Z,101296.44
2023-03-16T08:22:52.820Z,101289.53
2023-03-16T08:28:02.809Z,101316.00
2023-03-16T08:33:07.437Z,101289.16
2023-03-16T08:38:13.710Z,101308.94
2023-03-16T08:43:21.194Z,101285.34
2023-03-16T08:48:27.014Z,101285.88
2023-03-16T08:53:31.827Z,101283.19
2023-03-16T08:58:37.387Z,101268.97
2023-03-16T09:03:42.572Z,101274.88
2023-03-16T09:08:48.181Z,101256.84
2023-03-16T09:13:53.222Z,101271.59
2023-03-16T09:18:57.632Z,101261.03
2023-03-16T09:24:02.706Z,101246.59
2023-03-16T09:29:09.996Z,101247.59
2023-03-16T09:34:14.116Z,101232.84
2023-03-16T09:39:18.544Z,101235.19
2023-03-16T09:44:44.245Z,101227.75
2023-03-16T09:49:50.034Z,101219.28
2023-03-16T09:55:17.034Z,101208.59
2023-03-16T10:00:32.221Z,101189.25
2023-03-16T10:05:40.042Z,101197.53
2023-03-16T10:11:03.828Z,101174.84
2023-03-16T10:16:22.125Z,101166.72
2023-03-16T10:21:26.467Z,101161.97
2023-03-16T10:26:39.904Z,101174.34
2023-03-16T10:31:44.004Z,101161.16
2023-03-16T10:36:48.574Z,101148.44
2023-03-16T10:41:58.498Z,101141.78
2023-03-16T10:47:05.940Z,101146.66
2023-03-16T10:52:20.983Z,101145.50
2023-03-16T10:57:36.044Z,101124.38
2023-03-16T11:02:41.175Z,101129.31
2023-03-16T11:07:55.489Z,101121.22
2023-03-16T11:13:06.921Z,101114.31
2023-03-16T11:18:25.516Z,101120.66
2023-03-16T11:23:34.220Z,101113.00
2023-03-16T11:28:44.280Z,101112.41
2023-03-16T11:33:49.734Z,101092.53
2023-03-16T11:39:32.924Z,101110.41
2023-03-16T11:44:57.148Z,101106.97
2023-03-16T11:50:12.932Z,101098.66
2023-03-16T11:55:46.783Z,101094.59
2023-03-16T12:01:09.415Z,101098.72
2023-03-16T12:06:55.104Z,101099.75
2023-03-16T12:12:03.410Z,101100.34
2023-03-16T12:17:20.095Z,101099.31
2023-03-16T12:22:27.641Z,101095.06
2023-03-16T12:27:37.212Z,101081.63
2023-03-16T12:33:10.541Z,101078.38
2023-03-16T12:38:31.965Z,101073.09
2023-03-16T12:44:11.706Z,101018.44
2023-03-16T12:49:17.067Z,101062.50
2023-03-16T12:54:26.884Z,101057.81
2023-03-16T12:59:47.157Z,101057.63
2023-03-16T13:04:59.916Z,101052.66
2023-03-16T13:10:14.328Z,101055.28
2023-03-16T13:15:22.616Z,101057.28
2023-03-16T13:20:35.442Z,101043.03
2023-03-16T13:25:46.075Z,101032.03
2023-03-16T13:30:50.861Z,101012.97
2023-03-16T13:35:58.044Z,101023.56
2023-03-16T13:41:10.702Z,101034.59
2023-03-16T13:46:21.893Z,101030.31
2023-03-16T13:51:26.048Z,101031.22
2023-03-16T13:56:34.562Z,101033.66
2023-03-16T14:01:40.063Z,101014.00
2023-03-16T14:07:02.479Z,101017.66
2023-03-16T14:12:15.696Z,101019.47
2023-03-16T14:17:22.868Z,101017.00
2023-03-16T14:22:38.742Z,101022.50
2023-03-16T14:27:47.619Z,101008.28
2023-03-16T14:33:05.077Z,101015.22
2023-03-16T14:38:33.460Z,100999.53
2023-03-16T14:43:47.294Z,101008.50
2023-03-16T14:48:52.572Z,101010.72
2023-03-16T14:53:58.027Z,101007.69
2023-03-16T14:59:03.319Z,100978.84
2023-03-16T15:04:09.094Z,101015.78
2023-03-16T15:09:39.870Z,101035.69
2023-03-16T15:15:05.280Z,101040.56
2023-03-16T15:20:18.610Z,101048.63
2023-03-16T15:25:39.241Z,101053.09
2023-03-16T15:30:50.193Z,101055.91
2023-03-16T15:35:58.343Z,101040.06
2023-03-16T15:41:03.994Z,101028.00
2023-03-16T15:46:11.685Z,101030.97
2023-03-16T15:51:28.373Z,101033.22
2023-03-16T15:56:53.273Z,101035.63
2023-03-16T16:02:02.160Z,101039.25
2023-03-16T16:07:11.613Z,101048.28
2023-03-16T16:12:18.639Z,101053.81
2023-03-16T16:17:43.847Z,101061.69
2023-03-16T16:22:54.631Z,101054.25
2023-03-16T16:28:00.372Z,101057.38
2023-03-16T16:33:31.853Z,101067.59
2023-03-16T16:38:37.199Z,101064.25
2023-03-16T16:43:45.090Z,101065.06
2023-03-16T16:48:59.687Z,101061.19
2023-03-16T16:54:18.186Z,101066.03
2023-03-16T16:59:27.893Z,101069.59
2023-03-16T17:04:33.336Z,101060.22
2023-03-16T17:09:39.616Z,101060.16
2023-03-16T17:14:45.517Z,101054.38
2023-03-16T17:19:50.995Z,101075.31
2023-03-16T17:24:56.487Z,101068.41
2023-03-16T17:30:02.403Z,101067.97
2023-03-16T17:35:19.404Z,101078.59
2023-03-16T17:40:29.069Z,101086.66
2023-03-16T17:45:34.933Z,101094.25
2023-03-16T17:50:40.514Z,101082.19
2023-03-16T17:55:47.375Z,101087.41
2023-03-16T18:00:54.043Z,101084.03
2023-03-16T18:05:59.944Z,101074.44
2023-03-16T18:11:12.116Z,101102.75
2023-03-16T18:16:25.426Z,101102.31
2023-03-16T18:21:32.206Z,101090.97
2023-03-16T18:26:38.017Z,101096.94
2023-03-16T18:31:44.979Z,101080.34
2023-03-16T18:36:52.344Z,101080.13
2023-03-16T18:41:57.983Z,101064.41
2023-03-16T18:47:04.465Z,101105.09
2023-03-16T18:52:20.308Z,101088.69
2023-03-16T18:57:29.466Z,101093.22
2023-03-16T19:03:03.662Z,101102.22
2023-03-16T19:08:15.542Z,101111.75
2023-03-16T19:13:27.469Z,101100.78
2023-03-16T19:18:45.237Z,101093.66
2023-03-16T19:24:00.966Z,101104.94
2023-03-16T19:29:06.396Z,101102.03
2023-03-16T19:34:29.648Z,101109.53
2023-03-16T19:39:35.092Z,101110.81
2023-03-16T19:44:40.620Z,101111.06
2023-03-16T19:49:46.304Z,101120.72
2023-03-16T19:54:52.297Z,101112.09
2023-03-16T19:59:59.010Z,101110.25
2023-03-16T20:05:04.626Z,101105.19
2023-03-16T20:10:18.189Z,101120.03
2023-03-16T20:15:27.804Z,101109.41
2023-03-16T20:20:38.132Z,101104.16
2023-03-16T20:25:43.656Z,101077.53
2023-03-16T20:30:50.306Z,101097.00
2023-03-16T20:36:02.454Z,101097.53
2023-03-16T20:41:33.261Z,101094.66
2023-03-16T20:46:44.532Z,101074.50
2023-03-16T20:51:50.823Z,101079.56
2023-03-16T20:56:56.385Z,101067.31
2023-03-16T21:02:03.823Z,101078.91
2023-03-16T21:07:09.887Z,101076.03
2023-03-16T21:12:22.542Z,101078.50
2023-03-16T21:17:35.064Z,101083.38
2023-03-16T21:22:40.449Z,101083.72
2023-03-16T21:27:47.044Z,101084.38
2023-03-16T21:32:53.472Z,101085.47
2023-03-16T21:37:59.796Z,101090.09
2023-03-16T21:43:05.388Z,101054.13
2023-03-16T21:48:39.477Z,101091.38
2023-03-16T21:53:45.934Z,101089.91
2023-03-16T21:58:52.812Z,101090.63
2023-03-16T22:04:04.320Z,101083.97
2023-03-16T22:09:21.269Z,101083.28
2023-03-16T22:14:27.801Z,101074.03
2023-03-16T22:19:33.956Z,101072.13
2023-03-16T22:24:39.487Z,101068.59
2023-03-16T22:29:45.386Z,101061.66
2023-03-16T22:34:56.505Z,101059.16
2023-03-16T22:40:03.633Z,101049.88
2023-03-16T22:45:25.332Z,101060.81
2023-03-16T22:50:36.417Z,101047.13
2023-03-16T22:55:41.995Z,101034.31
2023-03-16T23:00:47.604Z,101032.78
2023-03-16T23:05:53.378Z,101007.94
2023-03-16T23:10:59.104Z,101028.38
2023-03-16T23:16:04.761Z,101011.53
2023-03-16T23:21:15.262Z,101018.94
2023-03-16T23:26:27.291Z,101025.16
2023-03-16T23:31:32.726Z,101012.31
2023-03-16T23:36:38.177Z,101005.00
2023-03-16T23:41:46.543Z,101017.91
2023-03-16T23:46:52.894Z,100999.59
2023-03-16T23:52:00.182Z,101028.09
2023-03-16T23:57:05.468Z,101014.81
